Time;durP1;ratioP1;P1;durP2;ratioP2;P2;SDS_P1;SDS_P2;PMS_P1;PMS_P2;Temp;Humidity;BMP_temperature;BMP_pressure;BME280_temperature;BME280_humidity;BME280_pressure;Samples;Min_cycle;Max_cycle;Signal;HPM_P1;HPM_P2
2022/02/09 00:05:00;;;;;;;288.27;276.47;;;9.60;99.90;;;;;;4398850;32;20189;-62
2022/02/09 00:07:36;;;;;;;276.10;264.60;;;9.60;99.90;;;;;;4407641;32;20144;-62
2022/02/09 00:10:06;;;;;;;297.77;285.43;;;9.60;99.90;;;;;;4404865;32;20153;-63
2022/02/09 00:12:38;;;;;;;294.77;282.47;;;9.70;99.90;;;;;;4406691;32;20169;-62
2022/02/09 00:15:19;;;;;;;275.00;263.77;;;9.70;99.90;;;;;;4396804;32;20212;-63
2022/02/09 00:17:53;;;;;;;278.63;267.37;;;9.60;99.90;;;;;;4408187;32;20146;-64
2022/02/09 00:21:00;;;;;;;286.37;274.70;;;9.60;99.90;;;;;;4408143;32;20149;-62
2022/02/09 00:24:00;;;;;;;261.50;250.43;;;9.60;99.90;;;;;;4404789;32;20151;-63
2022/02/09 00:34:50;;;;;;;286.57;274.63;;;9.60;99.90;;;;;;4401499;32;20221;-63
2022/02/09 00:37:44;;;;;;;265.53;254.40;;;9.60;99.90;;;;;;4404659;32;20161;-63
2022/02/09 00:43:30;;;;;;;297.90;285.70;;;9.60;99.90;;;;;;4349957;32;2949948;-62
2022/02/09 01:03:03;;;;;;;279.97;268.37;;;9.60;99.90;;;;;;4449020;32;20157;-64
2022/02/09 01:38:00;;;;;;;277.43;265.97;;;9.60;99.90;;;;;;4347255;33;20185;-63
2022/02/09 01:38:57;;;;;;;280.67;269.00;;;9.60;99.90;;;;;;4354959;33;20554;-63
2022/02/09 01:55:31;;;;;;;253.50;242.93;;;9.40;99.90;;;;;;4335217;33;20183;-63
2022/02/09 01:57:59;;;;;;;251.30;240.37;;;9.50;99.90;;;;;;4332643;33;20282;-63
2022/02/09 02:00:27;;;;;;;279.50;268.00;;;9.50;99.90;;;;;;4343952;33;20182;-61
2022/02/09 02:02:54;;;;;;;264.80;253.87;;;9.50;99.90;;;;;;4344034;33;20168;-64
2022/02/09 02:05:23;;;;;;;255.77;245.23;;;9.40;99.90;;;;;;4367099;32;20193;-63
2022/02/09 02:07:52;;;;;;;268.33;257.27;;;9.40;99.90;;;;;;4387043;32;20635;-63
2022/02/09 02:10:27;;;;;;;260.03;249.37;;;9.40;99.90;;;;;;4379195;32;20586;-62
2022/02/09 02:13:08;;;;;;;285.27;273.63;;;9.50;99.90;;;;;;4385050;32;20623;-63
2022/02/09 02:18:21;;;;;;;273.00;261.83;;;9.40;99.90;;;;;;4375838;32;20246;-62
2022/02/09 02:21:02;;;;;;;260.93;249.87;;;9.50;99.90;;;;;;4384486;32;20261;-62
2022/02/09 02:23:43;;;;;;;268.53;257.03;;;9.50;99.90;;;;;;4380416;32;20204;-61
2022/02/09 02:26:23;;;;;;;275.93;264.67;;;9.50;99.90;;;;;;4388209;32;20160;-62
2022/02/09 02:29:09;;;;;;;289.10;277.10;;;9.50;99.90;;;;;;4394486;32;20615;-61
2022/02/09 02:31:57;;;;;;;270.43;258.47;;;9.60;99.90;;;;;;4427299;32;20181;-62
2022/02/09 02:35:05;;;;;;;252.37;241.90;;;9.50;99.90;;;;;;4436213;32;20179;-64
2022/02/09 02:57:14;;;;;;;280.80;269.03;;;9.50;99.90;;;;;;4374513;32;20476;-63
2022/02/09 03:07:45;;;;;;;285.00;273.10;;;9.50;99.90;;;;;;4388610;32;20163;-61
2022/02/09 03:11:09;;;;;;;289.07;276.83;;;9.50;99.90;;;;;;4339381;33;20244;-62
2022/02/09 03:13:47;;;;;;;269.87;258.33;;;9.50;99.90;;;;;;4338653;33;20755;-62
2022/02/09 03:16:27;;;;;;;273.70;261.80;;;9.50;99.90;;;;;;4368157;32;20210;-64
2022/02/09 03:21:50;;;;;;;294.63;282.17;;;9.50;99.90;;;;;;4329664;33;20162;-64
2022/02/09 03:24:29;;;;;;;282.70;270.30;;;9.50;99.90;;;;;;4326595;33;20170;-61
2022/02/09 03:27:21;;;;;;;283.87;271.53;;;9.60;99.90;;;;;;4328758;33;20222;-63
2022/02/09 03:44:08;;;;;;;296.00;283.37;;;9.50;99.90;;;;;;4286178;33;20172;-61
2022/02/09 03:49:39;;;;;;;285.50;273.33;;;9.40;99.90;;;;;;4257500;33;20191;-63
2022/02/09 03:52:20;;;;;;;283.80;271.37;;;9.40;99.90;;;;;;4256511;33;20158;-63
2022/02/09 03:54:56;;;;;;;284.83;272.70;;;9.40;99.90;;;;;;4261059;33;20162;-62
2022/02/09 03:57:26;;;;;;;296.57;284.17;;;9.50;99.90;;;;;;4274104;33;20159;-61
2022/02/09 03:59:52;;;;;;;298.53;285.73;;;9.50;99.90;;;;;;4302074;33;20175;-61
2022/02/09 04:02:21;;;;;;;283.87;272.00;;;9.50;99.90;;;;;;4312883;33;20170;-63
2022/02/09 04:04:53;;;;;;;300.70;288.30;;;9.50;99.90;;;;;;4313482;33;20165;-62
2022/02/09 04:07:20;;;;;;;283.83;271.97;;;9.50;99.90;;;;;;4314561;33;20200;-63
2022/02/09 04:09:50;;;;;;;275.90;264.50;;;9.50;99.90;;;;;;4313122;33;20192;-61
2022/02/09 04:12:30;;;;;;;283.77;272.00;;;9.50;99.90;;;;;;4351069;32;20160;-63
2022/02/09 04:15:03;;;;;;;274.00;262.43;;;9.50;99.90;;;;;;4349913;32;20159;-63
2022/02/09 04:17:38;;;;;;;290.83;278.77;;;9.40;99.90;;;;;;4352143;33;20240;-63
2022/02/09 04:20:26;;;;;;;286.20;274.27;;;9.50;99.90;;;;;;4358292;32;20180;-63
2022/02/09 04:36:52;;;;;;;310.47;297.67;;;9.50;99.90;;;;;;4358857;32;20222;-62
2022/02/09 04:39:25;;;;;;;301.93;289.50;;;9.40;99.90;;;;;;4357746;33;20623;-62
2022/02/09 04:44:55;;;;;;;297.23;284.87;;;9.40;99.90;;;;;;4328665;33;20176;-62
2022/02/09 04:47:33;;;;;;;284.67;272.83;;;9.40;99.90;;;;;;4314031;33;20576;-64
2022/02/09 04:50:08;;;;;;;288.43;276.53;;;9.40;99.90;;;;;;4321747;33;20166;-65
2022/02/09 04:52:58;;;;;;;276.57;264.97;;;9.40;99.90;;;;;;4328277;33;20158;-64
2022/02/09 04:58:20;;;;;;;295.27;283.07;;;9.30;99.90;;;;;;4327967;33;20195;-62
2022/02/09 05:00:56;;;;;;;284.30;272.30;;;9.30;99.90;;;;;;4329094;33;20475;-62
2022/02/09 05:23:10;;;;;;;312.87;299.67;;;9.00;99.90;;;;;;4366740;32;20170;-61
2022/02/09 05:25:44;;;;;;;328.90;315.10;;;9.00;99.90;;;;;;4371399;32;20223;-64
2022/02/09 05:28:14;;;;;;;328.83;314.97;;;9.00;99.90;;;;;;4367905;32;20164;-62
2022/02/09 05:30:44;;;;;;;321.77;308.43;;;9.00;99.90;;;;;;4375589;32;20241;-63
2022/02/09 05:33:16;;;;;;;307.20;294.33;;;8.90;99.90;;;;;;4375081;32;20561;-62
2022/02/09 05:35:46;;;;;;;302.23;289.33;;;8.90;99.90;;;;;;4373850;32;20898;-62
2022/02/09 05:38:15;;;;;;;326.60;312.53;;;8.90;99.90;;;;;;4360707;32;20209;-62
2022/02/09 05:40:44;;;;;;;320.67;307.07;;;8.90;99.90;;;;;;4369282;32;20151;-61
2022/02/09 05:43:12;;;;;;;325.53;311.90;;;8.90;99.90;;;;;;4374866;32;20180;-61
2022/02/09 05:45:55;;;;;;;310.13;297.23;;;9.00;99.90;;;;;;4374146;32;20217;-62
2022/02/09 05:51:12;;;;;;;314.83;301.60;;;8.90;99.90;;;;;;4369072;32;20145;-62
2022/02/09 05:53:56;;;;;;;323.50;309.93;;;9.00;99.90;;;;;;4346176;32;20157;-62
2022/02/09 05:56:35;;;;;;;316.43;303.20;;;9.00;99.90;;;;;;4345538;33;20175;-62
2022/02/09 05:59:06;;;;;;;312.10;299.17;;;9.00;99.90;;;;;;4381761;32;20185;-62
2022/02/09 06:01:33;;;;;;;316.73;303.37;;;8.90;99.90;;;;;;4405010;32;20194;-62
2022/02/09 06:04:00;;;;;;;330.07;315.97;;;8.90;99.90;;;;;;4400237;32;20176;-62
2022/02/09 06:06:27;;;;;;;323.20;309.47;;;8.90;99.90;;;;;;4399968;32;20785;-62
2022/02/09 06:08:55;;;;;;;340.73;326.13;;;8.80;99.90;;;;;;4399143;32;20210;-62
2022/02/09 06:11:28;;;;;;;337.97;323.40;;;8.80;99.90;;;;;;4398977;32;20142;-63
2022/02/09 06:14:16;;;;;;;335.27;321.07;;;8.80;99.90;;;;;;4394756;32;20293;-63
2022/02/09 06:19:44;;;;;;;325.60;311.80;;;8.80;99.90;;;;;;4394729;32;20250;-63
2022/02/09 06:22:11;;;;;;;304.10;291.20;;;8.70;99.90;;;;;;4390977;32;20243;-62
2022/02/09 06:24:47;;;;;;;313.40;300.10;;;8.70;99.90;;;;;;4392507;32;20685;-63
2022/02/09 06:27:18;;;;;;;307.90;294.67;;;8.70;99.90;;;;;;4391585;32;20629;-62
2022/02/09 06:29:47;;;;;;;322.13;308.43;;;8.70;99.90;;;;;;4400535;32;20175;-61
2022/02/09 06:32:16;;;;;;;313.00;299.53;;;8.70;99.90;;;;;;4398767;32;20642;-63
2022/02/09 06:34:47;;;;;;;318.93;305.13;;;8.70;99.90;;;;;;4399409;32;20219;-64
2022/02/09 06:37:23;;;;;;;326.80;312.67;;;8.70;99.90;;;;;;4397043;32;20160;-61
2022/02/09 06:39:57;;;;;;;328.47;314.37;;;8.70;99.90;;;;;;4392566;32;20152;-63
2022/02/09 06:45:19;;;;;;;323.33;309.57;;;8.70;99.90;;;;;;4424723;32;20641;-62
2022/02/09 06:47:46;;;;;;;325.67;311.70;;;8.70;99.90;;;;;;4424162;32;21266;-60
2022/02/09 06:50:19;;;;;;;321.73;307.97;;;8.60;99.90;;;;;;4429012;32;20139;-62
2022/02/09 06:52:57;;;;;;;324.23;310.57;;;8.60;99.90;;;;;;4429301;32;20154;-62
2022/02/09 06:55:25;;;;;;;329.87;315.80;;;8.60;99.90;;;;;;4427383;32;20158;-62
2022/02/09 06:58:04;;;;;;;349.43;334.70;;;8.60;99.90;;;;;;4428437;32;20183;-63
2022/02/09 07:00:34;;;;;;;330.90;316.63;;;8.60;99.90;;;;;;4426095;32;20186;-61
2022/02/09 07:03:02;;;;;;;320.93;307.30;;;8.60;99.90;;;;;;4428334;32;20157;-62
2022/02/09 07:05:29;;;;;;;311.60;298.33;;;8.60;99.90;;;;;;4425894;32;20202;-61
2022/02/09 07:07:55;;;;;;;330.80;316.60;;;8.60;99.90;;;;;;4432080;32;20166;-62
2022/02/09 07:10:22;;;;;;;331.17;316.80;;;8.60;99.90;;;;;;4427384;32;20165;-63
2022/02/09 07:12:50;;;;;;;339.00;324.30;;;8.60;99.90;;;;;;4431448;32;20291;-62
2022/02/09 07:15:26;;;;;;;322.50;308.90;;;8.60;99.90;;;;;;4427463;32;20227;-61
2022/02/09 07:17:54;;;;;;;332.93;318.77;;;8.60;99.90;;;;;;4430787;32;20174;-63
2022/02/09 07:20:24;;;;;;;317.60;303.90;;;8.60;99.90;;;;;;4433456;32;20591;-62
2022/02/09 07:22:56;;;;;;;332.83;318.37;;;8.60;99.90;;;;;;4429897;32;20222;-62
2022/02/09 07:25:31;;;;;;;349.50;334.77;;;8.60;99.90;;;;;;4427664;32;20152;-62
2022/02/09 07:28:04;;;;;;;335.23;320.97;;;8.60;99.90;;;;;;4429466;32;20170;-61
2022/02/09 07:30:31;;;;;;;330.77;316.60;;;8.60;99.90;;;;;;4431223;32;20183;-62
2022/02/09 07:33:01;;;;;;;332.30;318.23;;;8.60;99.90;;;;;;4428773;32;20168;-63
2022/02/09 07:35:31;;;;;;;332.30;318.20;;;8.70;99.90;;;;;;4430510;32;20158;-63
2022/02/09 07:38:00;;;;;;;320.37;306.57;;;8.60;99.90;;;;;;4429291;32;20153;-62
2022/02/09 07:40:28;;;;;;;332.63;318.30;;;8.60;99.90;;;;;;4430643;32;20579;-62
2022/02/09 07:42:59;;;;;;;361.53;346.33;;;8.60;99.90;;;;;;4425104;32;20171;-62
2022/02/09 07:45:58;;;;;;;357.37;342.10;;;8.60;99.90;;;;;;4429016;32;20167;-62
2022/02/09 07:48:56;;;;;;;348.03;333.20;;;8.60;99.90;;;;;;4428688;32;20152;-64
2022/02/09 07:51:39;;;;;;;346.33;331.57;;;8.80;99.90;;;;;;4430297;32;20150;-62
2022/02/09 07:54:06;;;;;;;361.17;345.93;;;8.70;99.90;;;;;;4428878;32;20196;-63
2022/02/09 07:56:36;;;;;;;343.67;328.90;;;8.60;99.90;;;;;;4427147;32;20205;-62
2022/02/09 07:59:04;;;;;;;365.40;350.00;;;8.70;99.90;;;;;;4430180;32;20494;-63
2022/02/09 08:01:35;;;;;;;337.23;322.97;;;8.70;99.90;;;;;;4431302;32;20213;-64
2022/02/09 08:04:02;;;;;;;339.87;325.53;;;8.70;99.90;;;;;;4429564;32;20213;-64
2022/02/09 08:06:34;;;;;;;343.13;328.93;;;8.70;99.90;;;;;;4428772;32;20164;-61
2022/02/09 08:09:05;;;;;;;329.83;315.93;;;8.70;99.90;;;;;;4426727;32;20153;-61
2022/02/09 08:11:37;;;;;;;339.17;324.90;;;8.70;99.90;;;;;;4430570;32;20167;-63
2022/02/09 08:31:01;;;;;;;366.47;350.93;;;8.80;99.90;;;;;;4430046;32;20179;-63
2022/02/09 08:33:29;;;;;;;368.33;352.70;;;8.80;99.90;;;;;;4428291;32;20201;-64
2022/02/09 08:35:57;;;;;;;378.37;361.53;;;8.80;99.90;;;;;;4428101;32;20495;-62
2022/02/09 08:38:29;;;;;;;350.20;335.33;;;8.80;99.90;;;;;;4428727;32;20213;-61
2022/02/09 08:40:56;;;;;;;354.23;339.17;;;8.80;99.90;;;;;;4430284;32;20148;-61
2022/02/09 08:43:31;;;;;;;362.47;346.97;;;8.80;99.90;;;;;;4432505;32;20198;-62
2022/02/09 08:46:01;;;;;;;332.90;318.60;;;8.80;99.90;;;;;;4427204;32;20565;-61
2022/02/09 08:48:31;;;;;;;361.40;345.97;;;8.80;99.90;;;;;;4427149;32;20173;-64
2022/02/09 08:50:58;;;;;;;359.43;343.87;;;8.90;99.90;;;;;;4430059;32;20569;-64
2022/02/09 08:53:25;;;;;;;361.63;346.00;;;8.90;99.90;;;;;;4427635;32;20171;-61
2022/02/09 08:55:52;;;;;;;356.53;341.23;;;8.90;99.90;;;;;;4426693;32;20677;-63
2022/02/09 08:58:21;;;;;;;344.50;329.73;;;9.00;99.90;;;;;;4427970;32;20159;-62
2022/02/09 09:00:49;;;;;;;359.33;343.93;;;9.00;99.90;;;;;;4428536;32;20162;-62
2022/02/09 09:03:19;;;;;;;356.47;341.30;;;9.00;99.90;;;;;;4421475;32;20151;-62
2022/02/09 09:05:50;;;;;;;348.47;333.57;;;9.10;99.90;;;;;;4423375;32;20202;-62
2022/02/09 09:08:39;;;;;;;353.30;338.23;;;9.10;99.90;;;;;;4425051;32;20144;-62
2022/02/09 09:58:54;;;;;;;315.03;301.63;;;9.90;99.90;;;;;;4345650;33;20153;-62
2022/02/09 10:01:24;;;;;;;339.03;324.37;;;9.90;99.90;;;;;;4345774;33;20246;-62
2022/02/09 10:04:12;;;;;;;341.17;326.63;;;10.10;99.90;;;;;;4345400;33;20148;-62
2022/02/09 10:35:26;;;;;;;297.50;285.07;;;11.00;99.90;;;;;;4391086;32;20145;-62
2022/02/09 10:37:53;;;;;;;290.73;278.33;;;11.10;99.90;;;;;;4389665;32;20175;-64
2022/02/09 10:40:34;;;;;;;291.30;279.17;;;11.10;99.90;;;;;;4389697;32;20164;-62
2022/02/09 10:43:03;;;;;;;288.17;276.17;;;11.20;99.90;;;;;;4391053;32;20188;-63
2022/02/09 10:45:35;;;;;;;286.93;274.73;;;11.20;99.90;;;;;;4404754;32;20190;-63
2022/02/09 10:48:03;;;;;;;287.97;275.93;;;11.20;99.90;;;;;;4437228;32;20470;-63
2022/02/09 10:50:32;;;;;;;306.90;293.93;;;11.20;99.90;;;;;;4438539;32;20145;-63
2022/02/09 10:53:01;;;;;;;286.07;273.67;;;11.20;99.90;;;;;;4436789;32;20164;-64
2022/02/09 10:55:34;;;;;;;319.87;306.13;;;11.00;99.90;;;;;;4434899;32;20162;-63
2022/02/09 10:58:03;;;;;;;319.30;305.67;;;11.10;99.90;;;;;;4437197;32;20135;-62
2022/02/09 11:00:32;;;;;;;320.00;306.30;;;11.20;99.90;;;;;;4437688;32;20618;-62
2022/02/09 11:02:59;;;;;;;308.20;295.17;;;11.30;99.90;;;;;;4437711;32;20143;-62
2022/02/09 11:05:26;;;;;;;319.00;305.60;;;11.30;99.90;;;;;;4438453;32;20143;-62
2022/02/09 11:07:55;;;;;;;306.33;293.30;;;11.20;99.90;;;;;;4436418;32;20155;-61
2022/02/09 11:10:22;;;;;;;325.50;311.37;;;11.10;99.90;;;;;;4433794;32;20242;-62
2022/02/09 11:12:51;;;;;;;334.40;320.20;;;11.10;99.90;;;;;;4428849;32;20577;-62
2022/02/09 11:15:28;;;;;;;325.47;311.47;;;11.10;99.90;;;;;;4427485;32;20166;-62
2022/02/09 11:17:57;;;;;;;325.03;311.20;;;11.10;99.90;;;;;;4428880;32;20558;-61
2022/02/09 11:20:28;;;;;;;329.77;315.53;;;11.00;99.90;;;;;;4431093;32;20154;-62
2022/02/09 11:22:56;;;;;;;326.17;312.17;;;11.00;99.90;;;;;;4427826;32;20156;-62
2022/02/09 11:25:28;;;;;;;328.73;314.70;;;11.10;99.90;;;;;;4427641;32;20156;-62
2022/02/09 11:28:22;;;;;;;324.60;310.80;;;11.20;99.90;;;;;;4428513;32;20151;-62
2022/02/09 11:31:04;;;;;;;306.33;292.50;;;11.40;99.90;;;;;;4429929;32;20156;-63
2022/02/09 11:34:02;;;;;;;314.57;301.20;;;11.50;99.90;;;;;;4428577;32;20144;-63
2022/02/09 11:36:35;;;;;;;302.57;289.67;;;11.80;99.90;;;;;;4432795;32;20150;-63
2022/02/09 11:39:10;;;;;;;281.40;269.60;;;12.10;99.90;;;;;;4431080;32;20155;-63
2022/02/09 11:41:49;;;;;;;282.23;270.20;;;12.10;99.90;;;;;;4427711;32;20182;-63
2022/02/09 11:44:49;;;;;;;263.90;252.53;;;12.10;99.90;;;;;;4429037;32;20166;-62
2022/02/09 11:48:03;;;;;;;265.73;254.50;;;12.00;99.90;;;;;;4425146;32;20147;-63
2022/02/09 11:50:56;;;;;;;264.53;253.43;;;11.90;99.90;;;;;;4429860;32;20181;-63
2022/02/09 11:56:44;;;;;;;283.93;272.03;;;11.60;99.90;;;;;;4429246;32;20226;-63
2022/02/09 12:10:48;;;;;;;284.60;272.57;;;11.50;99.90;;;;;;4432860;32;20482;-62
2022/02/09 12:13:53;;;;;;;273.13;261.43;;;11.40;99.90;;;;;;4429062;32;20523;-64
2022/02/09 12:16:35;;;;;;;288.00;275.37;;;11.60;99.90;;;;;;4427114;32;20167;-64
2022/02/09 12:19:07;;;;;;;288.37;275.77;;;11.70;99.90;;;;;;4429033;32;20582;-63
2022/02/09 12:21:49;;;;;;;313.30;299.70;;;11.70;99.90;;;;;;4430588;32;20155;-62
2022/02/09 12:24:28;;;;;;;278.20;266.20;;;11.70;99.90;;;;;;4422454;32;20156;-63
2022/02/09 12:27:01;;;;;;;283.47;271.30;;;11.60;99.90;;;;;;4419980;32;20589;-62
2022/02/09 12:29:36;;;;;;;284.87;272.63;;;11.60;99.90;;;;;;4423962;32;20186;-62
2022/02/09 12:32:23;;;;;;;305.47;292.40;;;11.70;99.90;;;;;;4424694;32;20245;-62
2022/02/09 12:34:56;;;;;;;284.33;272.13;;;11.70;99.90;;;;;;4427025;32;20173;-62
2022/02/09 12:37:27;;;;;;;268.93;257.23;;;11.70;99.90;;;;;;4423392;32;20155;-63
2022/02/09 12:39:57;;;;;;;300.50;287.70;;;11.60;99.90;;;;;;4426384;32;20273;-62
2022/02/09 12:42:29;;;;;;;293.60;280.60;;;11.50;99.90;;;;;;4424790;32;20163;-63
2022/02/09 12:45:01;;;;;;;304.43;291.40;;;11.30;99.90;;;;;;4422574;32;20173;-64
2022/02/09 12:47:33;;;;;;;304.57;291.33;;;11.40;99.90;;;;;;4425361;32;20159;-64
2022/02/09 12:50:04;;;;;;;296.53;283.87;;;11.40;99.90;;;;;;4431192;32;20177;-62
2022/02/09 12:52:35;;;;;;;296.70;284.07;;;11.50;99.90;;;;;;4428373;32;20147;-64
2022/02/09 12:55:08;;;;;;;292.33;279.27;;;11.40;99.90;;;;;;4421361;32;20151;-64
2022/02/09 12:57:43;;;;;;;303.93;290.97;;;11.20;99.90;;;;;;4420547;32;20165;-63
2022/02/09 13:00:26;;;;;;;311.87;298.57;;;11.10;99.90;;;;;;4420621;32;20507;-62
2022/02/09 13:02:58;;;;;;;318.67;304.90;;;11.00;99.90;;;;;;4429566;32;20181;-62
2022/02/09 13:05:27;;;;;;;307.87;294.37;;;10.90;99.90;;;;;;4425964;32;20169;-63
2022/02/09 13:07:56;;;;;;;325.13;311.17;;;10.80;99.90;;;;;;4429426;32;20439;-62
2022/02/09 13:10:28;;;;;;;312.03;298.60;;;10.80;99.90;;;;;;4420903;32;20203;-62
2022/02/09 13:12:57;;;;;;;340.83;326.20;;;10.60;99.90;;;;;;4435555;32;20173;-62
2022/02/09 13:15:33;;;;;;;322.90;309.00;;;10.70;99.90;;;;;;4437151;32;20437;-64
2022/02/09 13:18:29;;;;;;;323.07;309.17;;;10.70;99.90;;;;;;4435616;32;20526;-63
2022/02/09 13:23:56;;;;;;;328.07;314.00;;;10.80;99.90;;;;;;4420542;32;20603;-64
2022/02/09 13:51:39;;;;;;;330.17;316.10;;;10.90;99.90;;;;;;4420161;32;20185;-62
2022/02/09 14:15:24;;;;;;;308.60;295.37;;;10.60;99.90;;;;;;4306907;33;20189;-63
2022/02/09 14:18:11;;;;;;;300.17;287.07;;;10.60;99.90;;;;;;4314372;33;20210;-64
2022/02/09 14:49:09;;;;;;;318.70;304.80;;;9.50;99.90;;;;;;4345443;33;20517;-65
2022/02/09 14:54:13;;;;;;;310.67;296.77;;;9.70;99.90;;;;;;4327925;33;20190;-64
2022/02/09 14:56:53;;;;;;;338.87;323.97;;;9.70;99.90;;;;;;4324848;33;20709;-62
2022/02/09 14:59:33;;;;;;;325.40;311.20;;;9.70;99.90;;;;;;4322746;33;20237;-62
2022/02/09 15:02:04;;;;;;;309.17;294.97;;;9.60;99.90;;;;;;4338248;33;20165;-62
2022/02/09 15:04:41;;;;;;;305.33;291.83;;;9.60;99.90;;;;;;4352658;33;20206;-62
2022/02/09 15:07:25;;;;;;;285.13;272.43;;;9.50;99.90;;;;;;4356212;32;20671;-64
2022/02/09 15:09:56;;;;;;;301.43;287.93;;;9.60;99.90;;;;;;4376909;32;20694;-63
2022/02/09 15:12:28;;;;;;;306.57;292.70;;;9.60;99.90;;;;;;4388537;32;20199;-64
2022/02/09 15:15:11;;;;;;;303.73;289.93;;;9.60;99.90;;;;;;4388810;32;20258;-63
2022/02/09 15:18:11;;;;;;;306.13;292.70;;;9.60;99.90;;;;;;4381609;32;20648;-62
2022/02/09 15:23:21;;;;;;;305.43;291.70;;;9.50;99.90;;;;;;4373947;32;20243;-63
2022/02/09 15:25:54;;;;;;;323.37;308.80;;;9.50;99.90;;;;;;4379134;32;20183;-64
2022/02/09 15:28:20;;;;;;;326.83;312.47;;;9.50;99.90;;;;;;4373996;32;20569;-63
2022/02/09 15:30:53;;;;;;;318.03;303.73;;;9.50;99.90;;;;;;4388160;32;20183;-62
2022/02/09 15:33:25;;;;;;;337.13;322.37;;;9.50;99.90;;;;;;4425893;32;20177;-63
2022/02/09 15:35:56;;;;;;;325.40;310.70;;;9.50;99.90;;;;;;4424652;32;20220;-63
2022/02/09 15:38:33;;;;;;;324.70;310.50;;;9.50;99.90;;;;;;4425288;32;20161;-63
2022/02/09 15:41:11;;;;;;;332.70;317.77;;;9.50;99.90;;;;;;4429534;32;20214;-63
2022/02/09 15:44:04;;;;;;;328.10;313.67;;;9.50;99.90;;;;;;4430836;32;20197;-62
2022/02/09 15:58:11;;;;;;;354.13;337.63;;;9.40;99.90;;;;;;4426868;32;20190;-64
2022/02/09 16:06:23;;;;;;;353.50;337.60;;;9.30;99.90;;;;;;4436805;32;20158;-62
2022/02/09 16:09:12;;;;;;;358.30;342.07;;;9.30;99.90;;;;;;4436403;32;20163;-64
2022/02/09 16:22:53;;;;;;;365.40;348.97;;;9.20;99.90;;;;;;4343995;32;20239;-64
2022/02/09 16:25:31;;;;;;;368.87;352.57;;;9.20;99.90;;;;;;4372549;32;20543;-64
2022/02/09 16:33:50;;;;;;;378.20;361.13;;;9.10;99.90;;;;;;4363134;32;20262;-63
2022/02/09 16:36:56;;;;;;;368.27;351.47;;;9.20;99.90;;;;;;4366875;32;20172;-64
2022/02/09 16:44:56;;;;;;;367.17;350.63;;;9.20;99.90;;;;;;4328069;33;20267;-64
2022/02/09 16:47:44;;;;;;;363.37;347.03;;;9.20;99.90;;;;;;4328786;33;20183;-63
2022/02/09 16:50:15;;;;;;;347.63;331.63;;;9.10;99.90;;;;;;4325353;33;20176;-63
2022/02/09 16:52:47;;;;;;;343.60;328.27;;;9.20;99.90;;;;;;4326197;33;20594;-64
2022/02/09 16:55:47;;;;;;;357.17;341.10;;;9.20;99.90;;;;;;4326703;33;20166;-64
2022/02/09 17:20:24;;;;;;;367.60;350.83;;;9.00;99.90;;;;;;4424141;32;20178;-63
2022/02/09 17:22:51;;;;;;;387.40;369.40;;;9.00;99.90;;;;;;4426957;32;20154;-63
2022/02/09 17:25:19;;;;;;;368.20;351.10;;;9.10;99.90;;;;;;4427509;32;20205;-63
2022/02/09 17:27:47;;;;;;;389.40;371.20;;;9.00;99.90;;;;;;4431460;32;20186;-63
2022/02/09 17:30:41;;;;;;;388.27;370.23;;;9.10;99.90;;;;;;4426576;32;20594;-63
2022/02/09 17:33:14;;;;;;;394.60;375.97;;;9.00;99.90;;;;;;4431721;32;20150;-64
2022/02/09 17:35:49;;;;;;;400.23;381.10;;;9.00;99.90;;;;;;4427818;32;20149;-63
2022/02/09 17:38:27;;;;;;;429.57;401.93;;;8.90;99.90;;;;;;4436550;32;20187;-62
2022/02/09 17:57:40;;;;;;;374.77;356.73;;;9.00;99.90;;;;;;4370911;32;20149;-65
2022/02/09 18:00:13;;;;;;;389.90;371.40;;;9.10;99.90;;;;;;4375928;32;20168;-63
2022/02/09 18:02:41;;;;;;;392.20;373.60;;;9.00;99.90;;;;;;4358184;33;20205;-64
2022/02/09 18:05:16;;;;;;;392.50;373.53;;;9.10;99.90;;;;;;4365656;32;20183;-64
2022/02/09 18:07:45;;;;;;;408.73;389.03;;;9.00;99.90;;;;;;4370551;32;20614;-64
2022/02/09 18:10:21;;;;;;;396.70;377.43;;;9.00;99.90;;;;;;4363672;32;20184;-63
2022/02/09 18:13:12;;;;;;;403.23;384.37;;;9.10;99.90;;;;;;4375011;32;20466;-64
2022/02/09 18:27:43;;;;;;;434.57;413.10;;;9.10;99.90;;;;;;4372510;32;20223;-63
2022/02/09 18:33:11;;;;;;;394.03;375.33;;;9.10;99.90;;;;;;4383174;32;20250;-64
2022/02/09 18:39:14;;;;;;;403.00;383.63;;;9.10;99.90;;;;;;4424625;32;20300;-62
2022/02/09 18:44:31;;;;;;;406.90;387.93;;;9.00;99.90;;;;;;4399390;32;20596;-61
2022/02/09 18:47:12;;;;;;;416.33;396.33;;;9.00;99.90;;;;;;4400606;32;20205;-63
2022/02/09 19:03:52;;;;;;;405.23;386.23;;;9.00;99.90;;;;;;4387709;31;2530396;-63
2022/02/09 19:06:25;;;;;;;411.23;391.57;;;9.20;99.90;;;;;;4452648;32;20150;-63
2022/02/09 19:14:26;;;;;;;405.97;386.40;;;9.10;99.90;;;;;;4457857;32;20715;-61
2022/02/09 19:16:59;;;;;;;401.73;382.67;;;9.10;99.90;;;;;;4455786;32;20199;-62
2022/02/09 19:19:57;;;;;;;430.83;410.47;;;9.10;99.90;;;;;;4454823;32;20211;-61
2022/02/09 19:30:52;;;;;;;430.97;410.27;;;9.10;99.90;;;;;;4456922;32;20467;-64
2022/02/09 19:47:06;;;;;;;418.17;398.20;;;9.00;99.90;;;;;;4457550;32;20190;-60
2022/02/09 19:52:29;;;;;;;424.60;404.40;;;9.20;99.90;;;;;;4451908;32;20582;-62
2022/02/09 19:55:08;;;;;;;395.67;376.63;;;9.10;99.90;;;;;;4453633;32;20219;-62
2022/02/09 19:57:37;;;;;;;402.67;384.03;;;9.20;99.90;;;;;;4454929;32;20666;-63
2022/02/09 20:00:06;;;;;;;405.83;386.93;;;9.00;99.90;;;;;;4447948;32;20229;-62
2022/02/09 20:02:33;;;;;;;446.13;424.63;;;9.00;99.90;;;;;;4451581;32;20202;-64
2022/02/09 20:05:02;;;;;;;416.80;397.07;;;9.10;99.90;;;;;;4453537;32;20254;-63
2022/02/09 20:07:31;;;;;;;424.30;404.23;;;9.00;99.90;;;;;;4455258;32;20142;-64
2022/02/09 20:09:57;;;;;;;430.73;410.10;;;9.00;99.90;;;;;;4453674;32;20155;-62
2022/02/09 20:12:24;;;;;;;426.03;405.80;;;9.00;99.90;;;;;;4455289;32;20569;-64
2022/02/09 20:14:51;;;;;;;447.93;426.20;;;9.00;99.90;;;;;;4444321;32;20155;-64
2022/02/09 20:17:18;;;;;;;428.80;408.13;;;9.00;99.90;;;;;;4439167;32;20202;-64
2022/02/09 20:19:53;;;;;;;403.97;385.07;;;9.00;99.90;;;;;;4442732;32;20135;-64
2022/02/09 20:22:20;;;;;;;426.23;406.13;;;9.00;99.90;;;;;;4444148;32;20181;-61
2022/02/09 20:24:49;;;;;;;425.53;405.40;;;9.00;99.90;;;;;;4439145;32;20201;-65
2022/02/09 20:27:21;;;;;;;401.93;383.37;;;9.00;99.90;;;;;;4440369;32;20159;-64
2022/02/09 20:29:49;;;;;;;411.77;392.20;;;9.00;99.90;;;;;;4452000;32;20161;-64
2022/02/09 20:32:21;;;;;;;414.87;396.03;;;9.00;99.90;;;;;;4448982;32;20174;-62
2022/02/09 20:34:53;;;;;;;427.10;407.10;;;9.00;99.90;;;;;;4437018;32;20156;-62
2022/02/09 20:37:25;;;;;;;415.37;396.03;;;8.90;99.90;;;;;;4439603;32;20151;-62
2022/02/09 20:40:03;;;;;;;441.80;420.43;;;8.90;99.90;;;;;;4438465;32;20174;-63
2022/02/09 20:42:30;;;;;;;452.00;430.07;;;8.90;99.90;;;;;;4437546;32;20205;-63
2022/02/09 20:45:01;;;;;;;457.67;436.17;;;8.90;99.90;;;;;;4447959;32;20574;-61
2022/02/09 20:47:30;;;;;;;448.57;427.67;;;8.80;99.90;;;;;;4447923;32;20150;-64
2022/02/09 20:49:57;;;;;;;442.70;421.70;;;8.80;99.90;;;;;;4438227;32;20167;-63
2022/02/09 20:52:24;;;;;;;423.63;404.03;;;8.80;99.90;;;;;;4438033;32;20167;-61
2022/02/09 20:54:53;;;;;;;426.17;405.97;;;8.80;99.90;;;;;;4439139;32;20165;-64
2022/02/09 20:57:20;;;;;;;424.77;404.43;;;8.80;99.90;;;;;;4442405;32;20192;-62
2022/02/09 20:59:53;;;;;;;426.23;405.97;;;8.70;99.90;;;;;;4445516;32;20187;-63
2022/02/09 21:02:36;;;;;;;423.50;404.10;;;8.80;99.90;;;;;;4447853;32;20533;-63
2022/02/09 21:05:23;;;;;;;419.90;400.00;;;8.80;99.90;;;;;;4453876;32;20151;-63
2022/02/09 21:07:59;;;;;;;438.37;417.77;;;8.80;99.90;;;;;;4442225;32;20210;-62
2022/02/09 21:10:39;;;;;;;415.90;395.60;;;8.80;99.90;;;;;;4443305;32;20562;-62
2022/02/09 21:13:13;;;;;;;431.37;410.00;;;8.80;99.90;;;;;;4439852;32;20196;-62
2022/02/09 21:15:51;;;;;;;421.57;400.80;;;8.80;99.90;;;;;;4444502;32;20174;-62
2022/02/09 21:21:33;;;;;;;431.00;410.17;;;8.80;99.90;;;;;;4437355;32;20233;-62
2022/02/09 21:24:16;;;;;;;424.20;403.30;;;8.90;99.90;;;;;;4436941;32;20589;-62
2022/02/09 21:32:35;;;;;;;421.43;400.47;;;8.90;99.90;;;;;;4329076;33;20175;-61